Time;durP1;ratioP1;P1;durP2;ratioP2;P2;SDS_P1;SDS_P2;PMS_P1;PMS_P2;Temp;Humidity;BMP_temperature;BMP_pressure;BME280_temperature;BME280_humidity;BME280_pressure;Samples;Min_cycle;Max_cycle;Signal;HPM_P1;HPM_P2
2022/10/14 00:01:35;;;;;;;;;;;11.40;99.90;;;;;;5054967;28;20285;-82
2022/10/14 00:04:01;;;;;;;;;;;11.40;99.90;;;;;;5038766;28;19935;-82
2022/10/14 00:06:28;;;;;;;;;;;11.40;99.90;;;;;;5036941;28;19916;-82
2022/10/14 00:08:54;;;;;;;;;;;11.40;99.90;;;;;;5051999;28;20410;-82
2022/10/14 00:11:21;;;;;;;;;;;11.50;99.90;;;;;;5052623;28;19928;-82
2022/10/14 00:13:47;;;;;;;;;;;11.50;99.90;;;;;;5053295;28;19916;-82
2022/10/14 00:16:20;;;;;;;;;;;11.50;99.90;;;;;;5053512;28;19917;-82
2022/10/14 00:18:46;;;;;;;;;;;11.50;99.90;;;;;;5050222;28;19917;-82
2022/10/14 00:21:12;;;;;;;;;;;11.50;99.90;;;;;;5044101;28;20030;-82
2022/10/14 00:23:37;;;;;;;;;;;11.50;99.90;;;;;;5062340;28;19974;-82
2022/10/14 00:26:03;;;;;;;;;;;11.50;99.90;;;;;;5039491;28;20292;-82
2022/10/14 00:28:28;;;;;;;;;;;11.50;99.90;;;;;;5038616;28;20010;-82
2022/10/14 00:31:00;;;;;;;;;;;11.40;99.90;;;;;;5057986;28;19921;-82
2022/10/14 00:33:27;;;;;;;;;;;11.40;99.90;;;;;;5059168;28;19917;-82
2022/10/14 00:35:59;;;;;;;;;;;11.40;99.90;;;;;;5056475;28;19927;-82
2022/10/14 00:38:24;;;;;;;;;;;11.40;99.90;;;;;;5037819;28;20012;-82
2022/10/14 00:40:50;;;;;;;;;;;11.40;99.90;;;;;;5057322;28;20059;-82
2022/10/14 00:43:16;;;;;;;;;;;11.40;99.90;;;;;;5052672;28;19917;-82
2022/10/14 00:45:41;;;;;;;;;;;11.40;99.90;;;;;;5058981;28;19913;-82
2022/10/14 00:48:07;;;;;;;;;;;11.40;99.90;;;;;;5056996;28;20411;-82
2022/10/14 00:50:33;;;;;;;;;;;11.40;99.90;;;;;;5051110;28;19919;-82
2022/10/14 00:52:59;;;;;;;;;;;11.50;99.90;;;;;;5061600;28;20015;-82
2022/10/14 00:55:25;;;;;;;;;;;11.50;99.90;;;;;;5060650;28;20016;-82
2022/10/14 00:57:50;;;;;;;;;;;11.50;99.90;;;;;;5050748;28;19928;-82
2022/10/14 01:00:18;;;;;;;;;;;11.50;99.90;;;;;;5056002;28;19921;-82
2022/10/14 01:02:44;;;;;;;;;;;11.40;99.90;;;;;;5042958;28;19908;-82
2022/10/14 01:05:10;;;;;;;;;;;11.40;99.90;;;;;;5056313;28;20313;-82
2022/10/14 01:07:44;;;;;;;;;;;11.50;99.90;;;;;;5062597;28;19919;-82
2022/10/14 01:10:16;;;;;;;;;;;11.60;99.90;;;;;;5056528;28;20267;-82
2022/10/14 01:12:41;;;;;;;;;;;11.60;99.90;;;;;;5049246;28;20378;-83
2022/10/14 01:15:21;;;;;;;;;;;11.50;99.90;;;;;;5061257;28;19916;-82
2022/10/14 01:17:53;;;;;;;;;;;11.50;99.90;;;;;;5055993;28;19927;-82
2022/10/14 01:20:24;;;;;;;;;;;11.60;99.90;;;;;;5050315;28;19994;-82
2022/10/14 01:23:05;;;;;;;;;;;11.50;99.90;;;;;;5059312;28;19951;-82
2022/10/14 01:25:32;;;;;;;;;;;11.50;99.90;;;;;;5062100;28;19973;-82
2022/10/14 01:28:27;;;;;;;;;;;11.60;99.90;;;;;;5054832;28;19917;-82
2022/10/14 01:30:59;;;;;;;;;;;11.50;99.90;;;;;;5047481;28;19925;-82
2022/10/14 01:33:26;;;;;;;;;;;11.50;99.90;;;;;;5058114;28;19917;-82
2022/10/14 01:36:03;;;;;;;;;;;11.60;99.90;;;;;;5052497;28;19916;-82
2022/10/14 01:38:31;;;;;;;;;;;11.60;99.90;;;;;;5041744;28;20016;-82
2022/10/14 01:41:02;;;;;;;;;;;11.60;99.90;;;;;;5057522;28;20389;-82
2022/10/14 01:43:29;;;;;;;;;;;11.60;99.90;;;;;;5052495;28;19916;-81
2022/10/14 01:45:55;;;;;;;;;;;11.60;99.90;;;;;;5066821;28;20299;-82
2022/10/14 01:48:23;;;;;;;;;;;11.60;99.90;;;;;;5056058;28;19940;-82
2022/10/14 01:50:50;;;;;;;;;;;11.60;99.90;;;;;;5050919;28;19913;-82
2022/10/14 01:53:24;;;;;;;;;;;11.70;99.90;;;;;;5065542;28;19983;-82
2022/10/14 01:55:51;;;;;;;;;;;11.60;99.90;;;;;;5076641;28;19944;-82
2022/10/14 01:58:18;;;;;;;;;;;11.50;99.90;;;;;;5054993;28;20410;-82
2022/10/14 02:00:46;;;;;;;;;;;11.50;99.90;;;;;;5037798;28;19930;-82
2022/10/14 02:03:12;;;;;;;;;;;11.50;99.90;;;;;;5051446;28;20034;-82
2022/10/14 02:05:40;;;;;;;;;;;11.40;99.90;;;;;;5051848;28;19948;-82
2022/10/14 02:08:15;;;;;;;;;;;11.40;99.90;;;;;;5056591;28;19975;-82
2022/10/14 02:11:10;;;;;;;;;;;11.40;99.90;;;;;;5051202;28;19921;-82
2022/10/14 02:13:41;;;;;;;;;;;11.50;99.90;;;;;;5027912;28;20396;-82
2022/10/14 02:16:20;;;;;;;;;;;11.50;99.90;;;;;;5062002;28;19916;-82
2022/10/14 02:18:46;;;;;;;;;;;11.50;99.90;;;;;;5055900;28;19921;-82
2022/10/14 02:21:20;;;;;;;;;;;11.40;99.90;;;;;;5050592;28;19970;-82
2022/10/14 02:23:49;;;;;;;;;;;11.40;99.90;;;;;;5063537;28;19948;-82
2022/10/14 02:26:15;;;;;;;;;;;11.40;99.90;;;;;;5057290;28;19952;-82
2022/10/14 02:28:41;;;;;;;;;;;11.50;99.90;;;;;;5045397;28;19968;-82
2022/10/14 02:31:11;;;;;;;;;;;11.30;99.90;;;;;;5059223;28;19917;-82
2022/10/14 02:33:39;;;;;;;;;;;11.40;99.90;;;;;;5051714;28;19967;-82
2022/10/14 02:36:06;;;;;;;;;;;11.40;99.90;;;;;;5049239;28;19916;-82
2022/10/14 02:38:32;;;;;;;;;;;11.40;99.90;;;;;;5058427;28;19971;-82
2022/10/14 02:41:00;;;;;;;;;;;11.40;99.90;;;;;;5056306;28;19916;-82
2022/10/14 02:43:26;;;;;;;;;;;11.40;99.90;;;;;;5053430;28;19919;-82
2022/10/14 02:45:55;;;;;;;;;;;11.20;99.90;;;;;;5062918;28;19921;-82
2022/10/14 02:48:20;;;;;;;;;;;11.20;99.90;;;;;;5055568;28;19921;-82
2022/10/14 02:50:48;;;;;;;;;;;11.30;99.90;;;;;;5052848;28;21082;-82
2022/10/14 02:53:15;;;;;;;;;;;11.30;99.90;;;;;;5061423;28;19916;-82
2022/10/14 02:55:40;;;;;;;;;;;11.30;99.90;;;;;;5057454;28;20421;-81
2022/10/14 02:58:06;;;;;;;;;;;11.20;99.90;;;;;;5051554;28;19970;-82
2022/10/14 03:00:31;;;;;;;;;;;11.10;99.90;;;;;;5057459;28;19912;-82
2022/10/14 03:02:57;;;;;;;;;;;11.20;99.90;;;;;;5057349;28;19924;-82
2022/10/14 03:05:22;;;;;;;;;;;11.10;99.90;;;;;;5053255;28;19921;-82
2022/10/14 03:07:48;;;;;;;;;;;11.20;99.90;;;;;;5056428;28;19971;-82
2022/10/14 03:10:13;;;;;;;;;;;11.20;99.90;;;;;;5053886;28;19913;-82
2022/10/14 03:12:39;;;;;;;;;;;11.20;99.90;;;;;;5049204;28;20046;-82
2022/10/14 03:15:06;;;;;;;;;;;11.20;99.90;;;;;;5056013;28;19921;-82
2022/10/14 03:17:31;;;;;;;;;;;11.20;99.90;;;;;;5053769;28;19920;-82
2022/10/14 03:19:58;;;;;;;;;;;11.20;99.90;;;;;;5054383;28;19916;-82
2022/10/14 03:22:24;;;;;;;;;;;11.20;99.90;;;;;;5057615;28;20008;-82
2022/10/14 03:24:49;;;;;;;;;;;11.20;99.90;;;;;;5063605;28;20035;-82
2022/10/14 03:27:15;;;;;;;;;;;11.30;99.90;;;;;;5056303;28;20007;-82
2022/10/14 03:29:40;;;;;;;;;;;11.30;99.90;;;;;;5059396;28;19995;-81
2022/10/14 03:32:06;;;;;;;;;;;11.30;99.90;;;;;;5053923;28;19917;-82
2022/10/14 03:34:31;;;;;;;;;;;11.30;99.90;;;;;;5056765;28;19966;-82
2022/10/14 03:36:57;;;;;;;;;;;11.20;99.90;;;;;;5059349;28;20621;-82
2022/10/14 03:39:22;;;;;;;;;;;11.20;99.90;;;;;;5059298;28;19917;-82
2022/10/14 03:41:48;;;;;;;;;;;11.20;99.90;;;;;;5054107;28;20390;-82
2022/10/14 03:44:13;;;;;;;;;;;11.30;99.90;;;;;;5059514;28;20401;-82
2022/10/14 03:46:39;;;;;;;;;;;11.30;99.90;;;;;;5060604;28;20510;-82
2022/10/14 03:49:04;;;;;;;;;;;11.30;99.90;;;;;;5053565;28;19928;-82
2022/10/14 03:51:30;;;;;;;;;;;11.30;99.90;;;;;;5059582;28;19921;-82
2022/10/14 03:53:55;;;;;;;;;;;11.30;99.90;;;;;;5060596;28;19916;-82
2022/10/14 03:56:21;;;;;;;;;;;11.30;99.90;;;;;;5056071;28;20656;-81
2022/10/14 03:58:47;;;;;;;;;;;11.30;99.90;;;;;;5049307;28;19983;-81
2022/10/14 04:01:12;;;;;;;;;;;11.40;99.90;;;;;;5065053;28;20404;-82
2022/10/14 04:03:39;;;;;;;;;;;11.30;99.90;;;;;;5060004;28;20128;-80
2022/10/14 04:06:05;;;;;;;;;;;11.30;99.90;;;;;;5037467;28;20366;-80
2022/10/14 04:08:31;;;;;;;;;;;11.30;99.90;;;;;;5060107;28;19960;-80
2022/10/14 04:10:57;;;;;;;;;;;11.40;99.90;;;;;;5059739;28;19917;-79
2022/10/14 04:13:23;;;;;;;;;;;11.30;99.90;;;;;;5054686;28;19916;-79
2022/10/14 04:15:48;;;;;;;;;;;11.30;99.90;;;;;;5058332;28;19916;-80
2022/10/14 04:18:14;;;;;;;;;;;11.40;99.90;;;;;;5058561;28;19924;-80
2022/10/14 04:20:40;;;;;;;;;;;11.30;99.90;;;;;;5059195;28;19917;-80
2022/10/14 04:23:05;;;;;;;;;;;11.40;99.90;;;;;;5047848;28;19917;-83
2022/10/14 04:25:31;;;;;;;;;;;11.40;99.90;;;;;;5058649;28;19924;-82
2022/10/14 04:27:57;;;;;;;;;;;11.40;99.90;;;;;;5050919;28;19948;-82
2022/10/14 04:30:22;;;;;;;;;;;11.40;99.90;;;;;;5057544;28;19921;-81
2022/10/14 04:32:48;;;;;;;;;;;11.30;99.90;;;;;;5042575;28;19927;-85
2022/10/14 04:35:13;;;;;;;;;;;11.30;99.90;;;;;;5056779;28;19950;-81
2022/10/14 04:37:39;;;;;;;;;;;11.30;99.90;;;;;;5061112;28;20424;-81
2022/10/14 04:40:05;;;;;;;;;;;11.20;99.90;;;;;;5071093;28;19917;-82
2022/10/14 04:42:30;;;;;;;;;;;11.20;99.90;;;;;;5071600;28;20358;-83
2022/10/14 04:44:56;;;;;;;;;;;11.10;99.90;;;;;;5062008;28;20027;-81
2022/10/14 04:47:21;;;;;;;;;;;11.10;99.90;;;;;;5059862;28;19927;-81
2022/10/14 04:49:47;;;;;;;;;;;11.00;99.90;;;;;;5065563;28;19921;-82
2022/10/14 04:52:12;;;;;;;;;;;11.00;99.90;;;;;;5066270;28;20007;-80
2022/10/14 04:54:38;;;;;;;;;;;10.80;99.90;;;;;;5063975;28;19920;-81
2022/10/14 04:57:03;;;;;;;;;;;10.90;99.90;;;;;;5049060;28;19917;-81
2022/10/14 04:59:29;;;;;;;;;;;10.80;99.90;;;;;;5049528;28;19920;-80
2022/10/14 05:01:55;;;;;;;;;;;10.80;99.90;;;;;;5062691;28;20011;-80
2022/10/14 05:04:20;;;;;;;;;;;10.90;99.90;;;;;;5065276;28;20455;-80
2022/10/14 05:06:46;;;;;;;;;;;10.90;99.90;;;;;;5063762;28;20477;-80
2022/10/14 05:09:11;;;;;;;;;;;10.90;99.90;;;;;;5058707;28;19916;-81
2022/10/14 05:11:37;;;;;;;;;;;11.00;99.90;;;;;;5065865;28;19921;-81
2022/10/14 05:14:05;;;;;;;;;;;11.00;99.90;;;;;;5066394;28;19912;-81
2022/10/14 05:16:31;;;;;;;;;;;11.00;99.90;;;;;;5063500;28;19913;-80
2022/10/14 05:18:56;;;;;;;;;;;11.00;99.90;;;;;;5064547;28;19969;-78
2022/10/14 05:21:22;;;;;;;;;;;11.10;99.90;;;;;;5051622;28;19917;-80
2022/10/14 05:23:47;;;;;;;;;;;11.10;99.90;;;;;;5067284;28;19956;-80
2022/10/14 05:26:13;;;;;;;;;;;11.10;99.90;;;;;;5046295;28;19920;-80
2022/10/14 05:28:38;;;;;;;;;;;11.00;99.90;;;;;;5064601;28;20017;-80
2022/10/14 05:31:04;;;;;;;;;;;11.00;99.90;;;;;;5065229;28;20533;-80
2022/10/14 05:33:30;;;;;;;;;;;11.00;99.90;;;;;;5060501;28;19931;-80
2022/10/14 05:35:56;;;;;;;;;;;11.00;99.90;;;;;;5062271;28;19920;-80
2022/10/14 05:38:21;;;;;;;;;;;11.10;99.90;;;;;;5056512;28;20283;-80
2022/10/14 05:40:51;;;;;;;;;;;11.00;99.90;;;;;;5058841;28;20420;-80
2022/10/14 05:43:16;;;;;;;;;;;11.00;99.90;;;;;;5063310;28;19917;-80
2022/10/14 05:45:42;;;;;;;;;;;11.00;99.90;;;;;;5044974;28;20454;-80
2022/10/14 05:48:07;;;;;;;;;;;11.00;99.90;;;;;;5049001;28;19923;-80
2022/10/14 05:50:33;;;;;;;;;;;11.00;99.90;;;;;;5070275;28;19924;-81
2022/10/14 05:53:00;;;;;;;;;;;11.00;99.90;;;;;;5064026;28;20195;-80
2022/10/14 05:55:26;;;;;;;;;;;11.10;99.90;;;;;;5061577;28;20159;-80
2022/10/14 05:57:54;;;;;;;;;;;11.00;99.90;;;;;;5068738;28;20378;-80
2022/10/14 06:00:19;;;;;;;;;;;11.00;99.90;;;;;;5039820;28;19917;-81
2022/10/14 06:02:45;;;;;;;;;;;11.10;99.90;;;;;;5067605;28;19939;-80
2022/10/14 06:05:10;;;;;;;;;;;11.10;99.90;;;;;;5044345;28;19967;-80
2022/10/14 06:07:36;;;;;;;;;;;11.10;99.90;;;;;;5061696;28;19974;-80
2022/10/14 06:10:02;;;;;;;;;;;11.20;99.90;;;;;;5062556;28;20338;-81
2022/10/14 06:12:27;;;;;;;;;;;11.20;99.90;;;;;;5065268;28;20290;-80
2022/10/14 06:14:53;;;;;;;;;;;11.40;99.90;;;;;;5065806;28;19920;-80
2022/10/14 06:17:19;;;;;;;;;;;11.40;99.90;;;;;;5066388;28;19920;-81
2022/10/14 06:19:44;;;;;;;;;;;11.40;99.90;;;;;;5060459;28;19955;-80
2022/10/14 06:22:10;;;;;;;;;;;11.40;99.90;;;;;;5060060;28;19927;-80
2022/10/14 06:24:36;;;;;;;;;;;11.40;99.90;;;;;;5034382;28;20434;-80
2022/10/14 06:27:01;;;;;;;;;;;11.50;99.90;;;;;;5066675;28;19940;-80
2022/10/14 06:29:30;;;;;;;;;;;11.50;99.90;;;;;;5061008;28;20795;-80
2022/10/14 06:31:56;;;;;;;;;;;11.50;99.90;;;;;;5064937;28;19966;-81
2022/10/14 06:34:23;;;;;;;;;;;11.60;99.90;;;;;;5065432;28;20271;-79
2022/10/14 06:36:48;;;;;;;;;;;11.40;99.90;;;;;;5056429;28;20270;-81
2022/10/14 06:39:14;;;;;;;;;;;11.40;99.90;;;;;;5063959;28;20453;-79
2022/10/14 06:41:39;;;;;;;;;;;11.60;99.90;;;;;;5062269;28;19921;-81
2022/10/14 06:44:05;;;;;;;;;;;11.50;99.90;;;;;;5063179;28;19974;-79
2022/10/14 06:46:31;;;;;;;;;;;11.30;99.90;;;;;;5061351;28;19928;-80
2022/10/14 06:48:56;;;;;;;;;;;11.40;99.90;;;;;;5061229;28;19916;-80
2022/10/14 06:51:22;;;;;;;;;;;11.50;99.90;;;;;;5050780;28;19944;-79
2022/10/14 06:53:47;;;;;;;;;;;11.50;99.90;;;;;;5064281;28;19920;-81
2022/10/14 06:56:13;;;;;;;;;;;11.70;99.90;;;;;;5065104;28;19951;-80
2022/10/14 06:58:38;;;;;;;;;;;11.60;99.90;;;;;;5061781;28;20023;-80
2022/10/14 07:01:05;;;;;;;;;;;11.60;99.90;;;;;;5050013;28;19921;-80
2022/10/14 07:03:32;;;;;;;;;;;11.80;99.90;;;;;;5067325;28;19966;-80
2022/10/14 07:06:01;;;;;;;;;;;11.80;99.90;;;;;;5069449;28;19970;-80
2022/10/14 07:08:27;;;;;;;;;;;12.00;99.90;;;;;;5070115;28;19928;-80
2022/10/14 07:10:52;;;;;;;;;;;12.10;99.90;;;;;;5050970;28;19916;-78
2022/10/14 07:13:18;;;;;;;;;;;12.30;99.90;;;;;;5068474;28;19959;-80
2022/10/14 07:15:46;;;;;;;;;;;12.40;99.90;;;;;;5060166;28;20302;-80
2022/10/14 07:18:11;;;;;;;;;;;12.30;99.90;;;;;;5067587;28;19932;-79
2022/10/14 07:20:37;;;;;;;;;;;12.40;99.90;;;;;;5066657;28;19927;-78
2022/10/14 07:23:02;;;;;;;;;;;12.40;99.90;;;;;;5074339;28;19921;-78
2022/10/14 07:25:28;;;;;;;;;;;12.70;99.90;;;;;;5094186;28;19911;-79
2022/10/14 07:27:54;;;;;;;;;;;12.80;99.90;;;;;;5079516;28;19943;-84
2022/10/14 07:30:20;;;;;;;;;;;12.90;99.90;;;;;;5067547;28;20282;-81
2022/10/14 07:32:45;;;;;;;;;;;12.90;99.90;;;;;;5053067;28;19917;-81
2022/10/14 07:35:11;;;;;;;;;;;12.80;99.90;;;;;;5066617;28;20573;-82
2022/10/14 07:37:37;;;;;;;;;;;12.70;99.90;;;;;;5068014;28;20019;-82
2022/10/14 07:40:03;;;;;;;;;;;12.70;99.90;;;;;;5047612;28;20003;-82
2022/10/14 07:42:30;;;;;;;;;;;12.60;99.90;;;;;;5072185;28;19912;-80
2022/10/14 07:44:56;;;;;;;;;;;12.60;99.90;;;;;;5070642;28;20043;-80
2022/10/14 07:47:22;;;;;;;;;;;12.50;99.90;;;;;;5046148;28;20664;-80
2022/10/14 07:49:47;;;;;;;;;;;12.50;99.90;;;;;;5043638;28;19917;-80
2022/10/14 07:52:14;;;;;;;;;;;12.70;99.90;;;;;;5065820;28;19916;-81
2022/10/14 07:54:40;;;;;;;;;;;12.80;99.90;;;;;;5069207;28;19919;-79
2022/10/14 07:57:06;;;;;;;;;;;12.80;99.90;;;;;;5066095;28;19912;-81
2022/10/14 07:59:31;;;;;;;;;;;12.70;99.90;;;;;;5064544;28;20003;-81
2022/10/14 08:01:57;;;;;;;;;;;12.60;99.90;;;;;;5062442;28;19916;-83
2022/10/14 08:04:24;;;;;;;;;;;12.60;99.90;;;;;;5068102;28;19916;-83
2022/10/14 08:06:50;;;;;;;;;;;12.70;99.90;;;;;;5069169;28;19962;-81
2022/10/14 08:09:17;;;;;;;;;;;12.70;99.90;;;;;;5068829;28;20008;-81
2022/10/14 08:11:44;;;;;;;;;;;12.70;99.90;;;;;;5064876;28;19913;-82
2022/10/14 08:14:10;;;;;;;;;;;12.80;99.90;;;;;;5065196;28;19921;-81
2022/10/14 08:16:36;;;;;;;;;;;12.80;99.90;;;;;;5065164;28;19921;-81
2022/10/14 08:19:06;;;;;;;;;;;13.00;99.90;;;;;;5063121;28;19917;-81
2022/10/14 08:21:31;;;;;;;;;;;13.10;99.90;;;;;;5063382;28;19920;-81
2022/10/14 08:30:03;;;;;;;;;;;13.10;99.90;;;;;;5065613;28;20113;-81
2022/10/14 08:32:29;;;;;;;;;;;13.40;99.90;;;;;;5063257;28;19920;-82
2022/10/14 08:34:55;;;;;;;;;;;13.30;99.90;;;;;;5067209;28;19928;-81
2022/10/14 08:37:21;;;;;;;;;;;13.30;99.90;;;;;;5049750;28;19925;-82
2022/10/14 08:39:46;;;;;;;;;;;13.20;99.90;;;;;;5065928;28;19923;-80
2022/10/14 08:42:15;;;;;;;;;;;13.10;99.90;;;;;;5064045;28;20267;-80
2022/10/14 08:44:40;;;;;;;;;;;13.30;99.90;;;;;;5061246;28;19913;-81
2022/10/14 08:47:14;;;;;;;;;;;13.60;99.90;;;;;;5065414;28;19928;-81
2022/10/14 08:49:46;;;;;;;;;;;13.80;99.80;;;;;;5061437;28;19924;-81
2022/10/14 08:52:15;;;;;;;;;;;14.10;99.10;;;;;;5068806;28;19923;-80
2022/10/14 08:54:46;;;;;;;;;;;14.20;97.50;;;;;;5061088;28;20064;-81
2022/10/14 08:57:15;;;;;;;;;;;14.10;97.30;;;;;;5058245;28;19921;-81
2022/10/14 08:59:41;;;;;;;;;;;14.10;96.70;;;;;;5061436;28;19928;-79
2022/10/14 09:02:19;;;;;;;;;;;14.60;98.00;;;;;;5050641;28;19917;-81
2022/10/14 09:04:44;;;;;;;;;;;15.00;96.80;;;;;;5067646;28;19943;-84
2022/10/14 09:07:14;;;;;;;;;;;15.00;93.30;;;;;;5066664;28;19916;-80
2022/10/14 09:09:42;;;;;;;;;;;14.70;93.50;;;;;;5045901;28;19920;-81
2022/10/14 09:12:12;;;;;;;;;;;15.00;93.60;;;;;;5067936;28;19923;-81
2022/10/14 09:14:43;;;;;;;;;;;15.00;93.50;;;;;;5060794;28;19925;-81
2022/10/14 09:17:26;;;;;;;;;;;15.20;92.50;;;;;;5064540;28;20038;-80
2022/10/14 09:20:07;;;;;;;;;;;15.40;93.50;;;;;;5061747;28;19916;-82
2022/10/14 09:22:33;;;;;;;;;;;15.30;92.40;;;;;;5062063;28;19912;-79
2022/10/14 09:25:00;;;;;;;;;;;15.50;93.10;;;;;;5064672;28;20454;-81
2022/10/14 09:27:27;;;;;;;;;;;15.70;90.90;;;;;;5050053;28;19924;-81
2022/10/14 09:30:00;;;;;;;;;;;15.60;91.60;;;;;;5043036;28;19920;-82
2022/10/14 09:32:25;;;;;;;;;;;15.60;90.70;;;;;;5064192;28;19916;-82
2022/10/14 09:34:51;;;;;;;;;;;15.90;90.40;;;;;;5068069;28;19920;-82
2022/10/14 09:37:18;;;;;;;;;;;15.90;90.30;;;;;;5048451;28;20310;-81
2022/10/14 09:39:44;;;;;;;;;;;15.80;90.10;;;;;;5056502;28;19912;-81
2022/10/14 09:42:16;;;;;;;;;;;15.90;89.00;;;;;;5061225;28;19917;-81
2022/10/14 09:45:01;;;;;;;;;;;16.00;91.00;;;;;;5044504;28;19917;-83
2022/10/14 09:47:28;;;;;;;;;;;15.90;89.90;;;;;;5067626;28;19928;-82
2022/10/14 09:49:54;;;;;;;;;;;15.80;90.60;;;;;;5069935;28;19975;-81
2022/10/14 09:52:23;;;;;;;;;;;15.70;90.00;;;;;;5068629;28;19917;-81
2022/10/14 09:54:59;;;;;;;;;;;15.60;90.20;;;;;;5063024;28;19996;-81
2022/10/14 09:57:25;;;;;;;;;;;15.70;90.10;;;;;;5049048;28;19978;-81
2022/10/14 09:59:56;;;;;;;;;;;16.00;87.80;;;;;;5065967;28;19963;-81
2022/10/14 10:03:09;;;;;;;;;;;15.60;87.90;;;;;;5057037;28;19938;-80
2022/10/14 10:05:37;;;;;;;;;;;16.00;87.50;;;;;;5075727;28;19970;-81
2022/10/14 10:08:03;;;;;;;;;;;16.20;87.60;;;;;;5093897;28;20057;-80
2022/10/14 10:10:33;;;;;;;;;;;16.20;85.70;;;;;;5076161;28;20380;-81
2022/10/14 10:12:59;;;;;;;;;;;16.40;87.30;;;;;;5065919;28;20015;-81
2022/10/14 10:15:25;;;;;;;;;;;16.70;87.20;;;;;;5059361;28;20565;-81
2022/10/14 10:17:50;;;;;;;;;;;16.60;84.20;;;;;;5046966;28;19931;-81
2022/10/14 10:20:27;;;;;;;;;;;16.70;83.90;;;;;;5068128;28;19912;-81
2022/10/14 10:22:56;;;;;;;;;;;16.80;84.30;;;;;;5063054;28;19998;-80
2022/10/14 10:25:26;;;;;;;;;;;16.60;84.40;;;;;;5068116;28;19921;-81
2022/10/14 10:27:53;;;;;;;;;;;16.30;85.50;;;;;;5064984;28;19986;-81
2022/10/14 10:30:26;;;;;;;;;;;16.40;85.60;;;;;;5067200;28;19913;-80
2022/10/14 10:33:07;;;;;;;;;;;16.30;82.80;;;;;;5067265;28;19916;-82
2022/10/14 10:36:07;;;;;;;;;;;16.40;84.00;;;;;;5066417;28;19913;-82
2022/10/14 10:38:36;;;;;;;;;;;16.00;82.40;;;;;;5008163;28;19932;-81
2022/10/14 10:41:02;;;;;;;;;;;15.60;83.70;;;;;;5034878;28;19924;-81
2022/10/14 10:43:35;;;;;;;;;;;15.80;83.90;;;;;;5067732;28;19913;-81
2022/10/14 10:46:03;;;;;;;;;;;16.00;84.20;;;;;;5065252;28;19971;-81
2022/10/14 10:48:29;;;;;;;;;;;16.00;84.20;;;;;;5061029;28;19912;-81
2022/10/14 10:50:57;;;;;;;;;;;15.80;83.20;;;;;;5045919;28;20582;-80
2022/10/14 10:53:22;;;;;;;;;;;16.10;88.00;;;;;;5061996;28;20058;-80
2022/10/14 10:55:59;;;;;;;;;;;16.10;83.00;;;;;;5064620;28;20018;-82
2022/10/14 10:58:34;;;;;;;;;;;15.80;83.20;;;;;;5062052;28;19963;-83
2022/10/14 11:01:20;;;;;;;;;;;15.50;84.30;;;;;;5063503;28;20556;-83
2022/10/14 11:04:01;;;;;;;;;;;15.50;86.00;;;;;;5060769;28;19967;-82
2022/10/14 11:12:14;;;;;;;;;;;15.60;89.20;;;;;;5061788;28;20310;-80
2022/10/14 11:14:58;;;;;;;;;;;16.00;85.70;;;;;;5066601;28;19966;-82
2022/10/14 11:17:27;;;;;;;;;;;15.90;83.90;;;;;;5058502;28;20534;-82
2022/10/14 11:19:57;;;;;;;;;;;15.60;85.60;;;;;;5045062;28;20401;-82
2022/10/14 11:22:41;;;;;;;;;;;15.40;86.10;;;;;;5060350;28;20386;-84
2022/10/14 11:25:26;;;;;;;;;;;15.50;87.20;;;;;;5062660;28;19913;-87
2022/10/14 11:28:12;;;;;;;;;;;15.80;84.30;;;;;;5063053;28;19917;-87
2022/10/14 11:30:55;;;;;;;;;;;16.00;84.50;;;;;;5060266;28;20004;-85
2022/10/14 11:33:31;;;;;;;;;;;16.20;86.30;;;;;;5062503;28;19924;-86
2022/10/14 11:36:09;;;;;;;;;;;16.00;86.80;;;;;;5063215;28;19917;-84
2022/10/14 11:38:38;;;;;;;;;;;15.60;87.90;;;;;;5046113;28;19920;-84
2022/10/14 11:41:09;;;;;;;;;;;15.30;87.70;;;;;;5064545;28;19958;-85
2022/10/14 11:43:38;;;;;;;;;;;15.30;88.10;;;;;;5064153;28;19916;-83
2022/10/14 11:46:08;;;;;;;;;;;15.10;89.60;;;;;;5067381;28;19920;-82
2022/10/14 11:48:38;;;;;;;;;;;15.00;90.20;;;;;;5073144;28;19939;-84
2022/10/14 11:51:10;;;;;;;;;;;14.80;91.80;;;;;;5074913;28;19916;-80
2022/10/14 11:53:35;;;;;;;;;;;14.90;91.90;;;;;;5067526;28;19967;-82
2022/10/14 11:56:08;;;;;;;;;;;14.60;93.80;;;;;;5070359;28;20225;-82
2022/10/14 11:58:35;;;;;;;;;;;14.10;97.50;;;;;;5065161;28;19916;-81
2022/10/14 12:01:02;;;;;;;;;;;13.80;99.90;;;;;;5048224;28;20438;-84
2022/10/14 12:03:58;;;;;;;;;;;13.40;99.90;;;;;;5045072;28;20314;-83
2022/10/14 12:06:45;;;;;;;;;;;13.20;99.90;;;;;;5064998;28;19912;-82
2022/10/14 12:09:16;;;;;;;;;;;13.60;99.90;;;;;;5073258;28;20405;-84
2022/10/14 12:11:45;;;;;;;;;;;13.60;99.90;;;;;;5066950;28;19912;-81
2022/10/14 12:14:26;;;;;;;;;;;13.80;99.90;;;;;;5062640;28;19962;-84
2022/10/14 12:16:54;;;;;;;;;;;14.20;99.90;;;;;;5071928;28;19921;-81
2022/10/14 12:19:24;;;;;;;;;;;14.30;99.90;;;;;;5061797;28;19920;-81
2022/10/14 12:21:58;;;;;;;;;;;14.00;99.90;;;;;;5064791;28;19970;-81
2022/10/14 12:24:26;;;;;;;;;;;13.90;99.90;;;;;;5051300;28;19923;-83
2022/10/14 12:26:56;;;;;;;;;;;13.90;99.90;;;;;;5067953;28;19917;-80
2022/10/14 12:29:32;;;;;;;;;;;13.90;99.90;;;;;;5064364;28;19917;-79
2022/10/14 12:32:05;;;;;;;;;;;14.00;99.90;;;;;;5050200;28;20282;-81
2022/10/14 12:34:36;;;;;;;;;;;14.20;99.90;;;;;;5065817;28;20378;-79
2022/10/14 12:37:33;;;;;;;;;;;14.20;99.90;;;;;;5071428;28;19925;-78
2022/10/14 12:40:04;;;;;;;;;;;14.40;99.90;;;;;;5068362;28;19922;-80
2022/10/14 12:42:31;;;;;;;;;;;15.20;99.90;;;;;;5067592;28;20042;-80
2022/10/14 12:45:00;;;;;;;;;;;15.80;99.90;;;;;;5055408;28;20386;-81
2022/10/14 12:47:35;;;;;;;;;;;16.10;99.90;;;;;;5039226;28;20410;-82
2022/10/14 12:50:14;;;;;;;;;;;15.90;99.90;;;;;;5074782;28;19956;-81
2022/10/14 12:52:45;;;;;;;;;;;15.70;99.90;;;;;;5051280;28;22052;-81
2022/10/14 12:55:19;;;;;;;;;;;15.30;99.90;;;;;;5045140;28;19921;-81
2022/10/14 12:57:59;;;;;;;;;;;15.00;99.90;;;;;;5052147;28;19921;-81
2022/10/14 13:00:24;;;;;;;;;;;14.70;99.90;;;;;;5031365;28;20019;-80
2022/10/14 13:02:52;;;;;;;;;;;14.60;99.90;;;;;;5041738;28;20008;-79
2022/10/14 13:05:37;;;;;;;;;;;14.80;99.90;;;;;;5049281;28;19916;-81
2022/10/14 13:08:14;;;;;;;;;;;14.80;99.90;;;;;;5045830;28;19916;-79
2022/10/14 13:10:44;;;;;;;;;;;15.00;99.90;;;;;;5048851;28;20035;-79
2022/10/14 13:13:28;;;;;;;;;;;15.00;99.90;;;;;;5044887;28;19917;-79
2022/10/14 13:15:54;;;;;;;;;;;15.00;99.90;;;;;;5048647;28;19920;-80
2022/10/14 13:18:31;;;;;;;;;;;14.90;99.90;;;;;;5047852;28;19955;-81
2022/10/14 13:20:57;;;;;;;;;;;15.00;99.90;;;;;;5045345;28;19982;-79
2022/10/14 13:23:34;;;;;;;;;;;15.00;99.90;;;;;;5040003;28;20641;-79
2022/10/14 13:26:12;;;;;;;;;;;14.80;99.90;;;;;;5041309;28;19943;-78
2022/10/14 13:28:48;;;;;;;;;;;14.80;99.90;;;;;;5041238;28;19917;-80
2022/10/14 13:31:34;;;;;;;;;;;14.90;99.90;;;;;;5040352;28;19928;-82
2022/10/14 13:34:20;;;;;;;;;;;14.70;99.90;;;;;;4992002;28;19960;-82
2022/10/14 13:37:05;;;;;;;;;;;14.60;99.90;;;;;;5039349;28;19979;-81
2022/10/14 13:39:31;;;;;;;;;;;14.40;99.90;;;;;;5039383;28;19925;-80
2022/10/14 13:41:57;;;;;;;;;;;14.40;99.90;;;;;;5041048;28;20371;-82
2022/10/14 13:44:24;;;;;;;;;;;14.40;99.90;;;;;;5038382;28;19975;-81
2022/10/14 13:46:49;;;;;;;;;;;14.20;99.90;;;;;;5053584;28;19925;-80
2022/10/14 13:49:19;;;;;;;;;;;14.20;99.90;;;;;;5061773;28;19924;-81
2022/10/14 13:51:48;;;;;;;;;;;14.10;99.90;;;;;;5064037;28;19994;-82
2022/10/14 13:54:16;;;;;;;;;;;14.10;99.90;;;;;;5065689;28;19967;-80
2022/10/14 13:56:42;;;;;;;;;;;14.20;99.90;;;;;;5063925;28;19920;-80
2022/10/14 13:59:18;;;;;;;;;;;14.20;99.90;;;;;;5063770;28;19924;-80
2022/10/14 14:01:43;;;;;;;;;;;14.40;99.90;;;;;;5064050;28;20027;-80
2022/10/14 14:04:15;;;;;;;;;;;14.50;99.90;;;;;;5064071;28;19921;-80
2022/10/14 14:06:45;;;;;;;;;;;14.40;99.90;;;;;;5047015;28;20745;-78
2022/10/14 14:09:17;;;;;;;;;;;14.50;99.90;;;;;;5061747;28;19927;-78
2022/10/14 14:11:45;;;;;;;;;;;14.50;99.90;;;;;;5045176;28;20282;-78
2022/10/14 14:14:17;;;;;;;;;;;14.50;99.90;;;;;;5048658;28;20007;-79
2022/10/14 14:17:02;;;;;;;;;;;14.40;99.90;;;;;;5065324;28;19913;-78
2022/10/14 14:19:30;;;;;;;;;;;14.20;99.90;;;;;;5052527;28;19948;-78
2022/10/14 14:22:14;;;;;;;;;;;14.30;99.90;;;;;;5036783;28;20370;-79
2022/10/14 14:24:40;;;;;;;;;;;14.30;99.90;;;;;;5065927;28;19920;-82
2022/10/14 14:27:10;;;;;;;;;;;14.20;99.90;;;;;;5067487;28;20409;-79
2022/10/14 14:29:37;;;;;;;;;;;14.20;99.90;;;;;;5066667;28;19916;-80
2022/10/14 14:32:03;;;;;;;;;;;14.20;99.90;;;;;;5047909;28;20286;-80
2022/10/14 14:34:28;;;;;;;;;;;14.10;99.90;;;;;;5062184;28;19913;-80
2022/10/14 14:36:56;;;;;;;;;;;14.10;99.90;;;;;;5065384;28;20018;-82
2022/10/14 14:39:24;;;;;;;;;;;14.00;99.90;;;;;;5047570;28;19928;-79